Time;durP1;ratioP1;P1;durP2;ratioP2;P2;SDS_P1;SDS_P2;PMS_P1;PMS_P2;Temp;Humidity;BMP_temperature;BMP_pressure;BME280_temperature;BME280_humidity;BME280_pressure;Samples;Min_cycle;Max_cycle;Signal;HPM_P1;HPM_P2
2023/05/07 00:02:17;;;;;;;5.75;3.83;;;16.00;68.10;;;18.88;45.98;97516.03;5013432;28;20409;-37
2023/05/07 00:04:45;;;;;;;6.28;4.18;;;16.00;68.00;;;18.89;46.00;97516.84;4995835;28;20121;-37
2023/05/07 00:07:12;;;;;;;5.93;4.32;;;16.00;68.10;;;18.91;45.94;97519.34;4995716;28;20041;-37
2023/05/07 00:09:40;;;;;;;6.53;4.18;;;16.00;68.00;;;18.91;46.11;97522.88;5013195;28;20046;-37
2023/05/07 00:12:07;;;;;;;5.85;4.35;;;16.00;68.00;;;18.94;46.27;97521.59;5013235;28;20038;-37
2023/05/07 00:14:35;;;;;;;6.90;4.13;;;16.10;68.40;;;18.94;46.12;97519.75;5012843;28;20497;-37
2023/05/07 00:17:03;;;;;;;6.25;4.15;;;16.10;68.20;;;18.93;46.04;97519.97;4995613;28;20049;-37
2023/05/07 00:19:31;;;;;;;4.28;3.83;;;16.00;68.30;;;18.94;46.12;97510.81;5013384;28;20057;-37
2023/05/07 00:21:59;;;;;;;5.95;4.43;;;16.00;68.40;;;18.91;46.26;97509.38;5012846;28;20243;-37
2023/05/07 00:24:27;;;;;;;5.25;4.38;;;16.00;68.70;;;18.91;46.26;97508.56;4995155;28;20050;-37
2023/05/07 00:26:54;;;;;;;5.05;4.25;;;16.00;68.90;;;18.89;46.32;97512.28;5012728;28;20049;-37
2023/05/07 00:29:22;;;;;;;6.03;5.03;;;16.00;68.70;;;18.87;46.36;97505.47;4995495;28;20049;-37
2023/05/07 00:31:50;;;;;;;7.28;4.85;;;15.90;69.20;;;18.84;46.47;97500.50;4994571;28;20617;-37
2023/05/07 00:34:19;;;;;;;6.07;4.43;;;15.90;69.10;;;18.79;46.42;97503.00;4995255;28;20050;-37
2023/05/07 00:36:47;;;;;;;7.38;4.28;;;15.90;69.20;;;18.78;46.54;97493.25;5012632;28;20422;-37
2023/05/07 00:39:15;;;;;;;5.00;4.38;;;15.80;69.30;;;18.74;46.65;97497.44;5012607;28;20487;-37
2023/05/07 00:41:42;;;;;;;5.45;3.92;;;15.80;69.60;;;18.70;46.63;97494.34;4994822;28;20050;-37
2023/05/07 00:44:10;;;;;;;6.43;4.57;;;15.80;69.80;;;18.65;46.71;97497.69;4994552;28;20053;-37
2023/05/07 00:46:37;;;;;;;7.90;4.63;;;15.70;70.10;;;18.62;46.75;97491.91;4994278;28;20050;-37
2023/05/07 00:49:06;;;;;;;5.63;4.32;;;15.60;69.80;;;18.62;46.84;97499.97;4994793;28;20054;-37
2023/05/07 00:51:33;;;;;;;4.78;3.85;;;15.70;70.10;;;18.58;46.89;97493.38;5011951;28;20457;-37
2023/05/07 00:54:03;;;;;;;5.88;4.25;;;15.60;70.10;;;18.54;47.23;97494.84;4984027;28;20399;-37
2023/05/07 00:56:32;;;;;;;5.57;4.82;;;15.60;70.40;;;18.54;47.02;97492.97;5002904;28;20046;-37
2023/05/07 00:59:02;;;;;;;5.22;4.72;;;15.60;70.10;;;18.53;47.04;97490.50;4994187;28;20056;-37
2023/05/07 01:01:29;;;;;;;6.45;4.18;;;15.60;70.10;;;18.52;47.01;97494.25;5012435;28;20038;-37
2023/05/07 01:03:57;;;;;;;5.88;4.25;;;15.60;70.00;;;18.49;46.99;97493.63;5012001;28;20065;-37
2023/05/07 01:06:27;;;;;;;6.55;4.63;;;15.60;70.10;;;18.44;47.15;97482.66;5001941;28;20049;-37
2023/05/07 01:08:57;;;;;;;5.57;4.72;;;15.50;70.40;;;18.38;47.27;97494.31;5011432;28;20056;-37
2023/05/07 01:11:25;;;;;;;6.50;4.40;;;15.50;70.70;;;18.35;47.41;97488.50;4994593;28;20497;-37
2023/05/07 01:13:53;;;;;;;4.50;4.07;;;15.40;70.90;;;18.32;47.45;97486.25;4992115;28;20043;-37
2023/05/07 01:16:21;;;;;;;5.82;4.18;;;15.40;71.20;;;18.31;47.56;97485.41;4994749;28;20053;-37
2023/05/07 01:18:50;;;;;;;5.45;4.47;;;15.40;71.30;;;18.32;47.39;97486.25;4979563;28;20061;-37
2023/05/07 01:21:21;;;;;;;5.50;4.63;;;15.40;71.30;;;18.28;47.45;97485.84;5011945;28;20041;-37
2023/05/07 01:23:48;;;;;;;5.28;4.53;;;15.30;71.40;;;18.25;47.55;97483.59;4994246;28;20205;-37
2023/05/07 01:26:19;;;;;;;4.90;4.22;;;15.30;71.50;;;18.25;47.69;97491.66;4975445;28;20046;-37
2023/05/07 01:28:46;;;;;;;5.60;4.18;;;15.30;71.80;;;18.21;47.79;97488.56;5009787;28;20437;-37
2023/05/07 01:31:16;;;;;;;4.78;4.03;;;15.30;71.80;;;18.21;47.81;97485.06;4974690;28;20050;-37
2023/05/07 01:33:45;;;;;;;5.85;4.28;;;15.30;72.10;;;18.21;47.88;97493.97;4974667;28;20514;-37
2023/05/07 01:36:14;;;;;;;7.95;4.80;;;15.30;72.10;;;18.21;48.08;97490.44;5011357;28;20050;-37
2023/05/07 01:38:42;;;;;;;6.43;4.85;;;15.30;72.50;;;18.20;48.15;97496.84;5011622;28;20046;-37
2023/05/07 01:41:12;;;;;;;5.43;4.47;;;15.30;72.40;;;18.18;48.10;97486.28;4993824;28;20053;-37
2023/05/07 01:43:43;;;;;;;5.63;4.25;;;15.30;72.50;;;18.21;48.01;97490.44;4994329;28;20502;-37
2023/05/07 01:46:12;;;;;;;5.53;4.47;;;15.30;72.40;;;18.20;48.05;97488.78;4977487;28;20053;-37
2023/05/07 01:48:40;;;;;;;10.13;5.78;;;15.30;72.30;;;18.21;48.06;97487.75;4993472;28;20057;-37
2023/05/07 01:51:08;;;;;;;6.38;4.95;;;15.30;72.30;;;18.21;48.09;97485.06;4985343;28;20421;-37
2023/05/07 01:53:37;;;;;;;5.80;4.65;;;15.40;72.20;;;18.21;48.21;97485.88;5010993;28;20046;-37
2023/05/07 01:56:05;;;;;;;5.38;4.30;;;15.40;72.10;;;18.22;48.04;97481.31;5011334;28;20418;-37
2023/05/07 01:58:34;;;;;;;5.07;4.03;;;15.40;71.80;;;18.24;48.01;97485.47;4993442;28;20061;-37
2023/05/07 02:01:02;;;;;;;5.93;4.03;;;15.40;71.80;;;18.27;47.89;97482.31;4993456;28;20058;-37
2023/05/07 02:03:30;;;;;;;4.85;3.65;;;15.40;71.60;;;18.30;47.79;97483.78;4991407;28;20064;-37
2023/05/07 02:06:06;;;;;;;5.70;4.03;;;15.50;71.30;;;18.34;47.82;97487.69;4993284;28;20053;-37
2023/05/07 02:08:37;;;;;;;6.32;4.05;;;15.50;70.90;;;18.36;47.57;97493.69;4993193;28;20057;-37
2023/05/07 02:11:04;;;;;;;5.45;3.95;;;15.50;70.60;;;18.33;47.66;97485.22;4993473;28;20561;-37
2023/05/07 02:13:34;;;;;;;7.20;3.60;;;15.50;70.80;;;18.37;47.69;97489.13;4994221;28;20395;-37
2023/05/07 02:16:02;;;;;;;4.15;3.17;;;15.50;70.60;;;18.36;47.60;97488.31;5010998;28;20057;-37
2023/05/07 02:18:31;;;;;;;4.60;3.80;;;15.50;70.70;;;18.38;47.49;97483.53;5011186;28;20053;-37
2023/05/07 02:20:59;;;;;;;3.92;3.53;;;15.50;70.50;;;18.39;47.63;97493.25;4994394;28;20054;-37
2023/05/07 02:23:26;;;;;;;4.18;3.33;;;15.50;70.70;;;18.37;47.35;97486.44;4997054;28;20050;-37
2023/05/07 02:25:54;;;;;;;4.63;3.47;;;15.50;70.50;;;18.36;47.60;97491.00;4997428;28;20552;-37
2023/05/07 02:28:22;;;;;;;5.32;4.00;;;15.50;70.60;;;18.35;47.37;97483.94;4996998;28;20042;-37
2023/05/07 02:31:08;;;;;;;4.20;3.10;;;15.50;70.50;;;18.37;47.38;97481.03;5015123;28;20497;-37
2023/05/07 02:33:36;;;;;;;5.28;4.30;;;15.50;70.50;;;18.36;47.33;97487.47;5014969;28;20042;-37
2023/05/07 02:36:11;;;;;;;5.00;3.72;;;15.50;70.40;;;18.32;47.25;97488.94;4997038;28;20061;-37
2023/05/07 02:38:51;;;;;;;4.30;3.65;;;15.40;70.20;;;18.29;47.40;97487.50;4997183;28;20413;-37
2023/05/07 02:41:20;;;;;;;10.82;4.25;;;15.40;70.20;;;18.22;47.36;97492.09;5007390;28;20421;-37
2023/05/07 02:43:48;;;;;;;3.63;3.25;;;15.30;71.30;;;18.18;47.54;97480.91;4997253;28;20050;-37
2023/05/07 02:46:17;;;;;;;6.45;4.13;;;15.30;70.80;;;18.15;47.56;97492.13;4988947;28;20037;-37
2023/05/07 02:48:49;;;;;;;5.65;3.72;;;15.30;70.90;;;18.13;47.63;97483.44;4996830;28;20046;-37
2023/05/07 02:51:22;;;;;;;3.90;3.25;;;15.20;71.10;;;18.09;47.69;97487.59;5014821;28;20042;-37
2023/05/07 02:53:53;;;;;;;4.60;3.15;;;15.20;71.40;;;18.07;47.87;97478.91;4997174;28;20221;-37
2023/05/07 02:56:21;;;;;;;5.97;5.07;;;15.20;71.40;;;18.03;47.89;97478.50;4996556;28;20042;-37
2023/05/07 02:58:49;;;;;;;5.43;3.80;;;15.10;71.70;;;18.01;48.08;97479.72;4996395;28;20058;-37
2023/05/07 03:01:18;;;;;;;4.25;3.85;;;15.10;71.70;;;17.99;47.96;97462.94;5014617;28;20037;-37
2023/05/07 03:03:52;;;;;;;4.22;3.70;;;15.10;71.80;;;17.96;48.12;97471.47;4996984;28;20053;-37
2023/05/07 03:06:20;;;;;;;4.53;4.13;;;15.00;72.10;;;17.93;48.21;97463.81;5013462;28;20057;-37
2023/05/07 03:08:47;;;;;;;5.78;3.83;;;15.00;72.20;;;17.88;48.21;97467.97;4994129;28;20069;-37
2023/05/07 03:11:15;;;;;;;6.65;3.95;;;14.90;72.40;;;17.87;48.23;97481.63;4995556;28;20050;-37
2023/05/07 03:13:42;;;;;;;4.70;3.88;;;14.90;72.30;;;17.86;48.19;97469.22;5013251;28;20045;-37
2023/05/07 03:16:10;;;;;;;5.25;4.65;;;15.00;72.20;;;17.84;48.24;97464.06;4977890;28;20053;-37
2023/05/07 03:18:38;;;;;;;5.90;3.80;;;15.00;72.20;;;17.83;48.15;97465.03;4986761;28;20046;-37
2023/05/07 03:21:05;;;;;;;7.50;4.65;;;14.90;72.30;;;17.79;48.15;97461.13;4995004;28;20057;-37
2023/05/07 03:23:33;;;;;;;6.60;3.90;;;14.90;72.40;;;17.76;48.23;97458.03;4994774;28;20057;-37
2023/05/07 03:26:01;;;;;;;5.75;4.07;;;14.90;72.50;;;17.74;48.19;97466.34;4995469;28;20049;-37
2023/05/07 03:28:28;;;;;;;5.20;4.38;;;14.80;72.50;;;17.73;48.39;97461.16;4994776;28;20042;-37
2023/05/07 03:31:00;;;;;;;5.10;3.95;;;14.80;72.60;;;17.71;48.37;97461.38;4994753;28;20053;-37
2023/05/07 03:33:32;;;;;;;5.07;4.30;;;14.80;72.90;;;17.71;48.52;97455.97;4995190;28;20422;-37
2023/05/07 03:36:00;;;;;;;4.35;3.95;;;14.70;72.90;;;17.67;48.46;97450.19;5012993;28;20230;-37
2023/05/07 03:38:29;;;;;;;6.82;4.32;;;14.70;73.20;;;17.65;48.54;97454.13;4994912;28;20046;-37
2023/05/07 03:40:57;;;;;;;6.65;4.03;;;14.70;73.40;;;17.61;48.44;97456.41;4994845;28;20524;-37
2023/05/07 03:43:25;;;;;;;5.53;4.18;;;14.60;74.40;;;17.60;48.47;97454.78;4976000;28;20042;-37
2023/05/07 03:46:00;;;;;;;8.30;4.43;;;14.60;73.50;;;17.59;48.72;97454.97;4994853;28;20402;-37
2023/05/07 03:48:29;;;;;;;4.35;3.80;;;14.60;73.70;;;17.55;48.80;97465.34;4994746;28;20042;-37
2023/05/07 03:50:59;;;;;;;7.18;4.20;;;14.60;73.90;;;17.49;48.81;97458.09;4994653;28;20057;-37
2023/05/07 03:53:31;;;;;;;5.35;4.63;;;14.50;74.10;;;17.46;48.89;97464.72;4995091;28;20429;-37
2023/05/07 03:55:58;;;;;;;6.32;4.90;;;14.50;74.20;;;17.45;49.17;97464.94;4994522;28;20054;-37
2023/05/07 03:58:26;;;;;;;4.90;4.40;;;14.50;74.50;;;17.43;48.86;97465.16;4994698;28;20042;-37
2023/05/07 04:00:57;;;;;;;5.28;3.92;;;14.50;74.50;;;17.42;49.06;97473.44;4994128;28;20064;-37
2023/05/07 04:03:28;;;;;;;6.20;5.05;;;14.50;74.80;;;17.40;49.05;97464.75;4975967;28;20050;-37
2023/05/07 04:05:58;;;;;;;6.35;4.82;;;14.40;74.80;;;17.39;49.13;97472.00;4956197;28;1038936;-37
2023/05/07 04:08:25;;;;;;;6.65;5.50;;;14.40;74.80;;;17.38;49.05;97472.19;4995169;28;20049;-37
2023/05/07 04:10:58;;;;;;;5.10;4.43;;;14.40;74.90;;;17.38;49.16;97469.50;4979274;28;20046;-37
2023/05/07 04:13:30;;;;;;;5.65;4.50;;;14.40;76.20;;;17.36;49.34;97475.09;4992370;28;20110;-37
2023/05/07 04:16:03;;;;;;;5.47;4.30;;;14.40;75.50;;;17.39;49.54;97476.53;5009140;28;20038;-37
2023/05/07 04:18:32;;;;;;;7.47;4.97;;;14.40;75.60;;;17.39;49.35;97474.69;4994785;28;20053;-36
2023/05/07 04:21:00;;;;;;;6.80;4.45;;;14.50;75.60;;;17.40;49.46;97478.19;4995013;28;20057;-37
2023/05/07 04:23:27;;;;;;;6.05;4.00;;;14.40;75.70;;;17.40;49.53;97484.41;4995147;28;20057;-37
2023/05/07 04:25:58;;;;;;;7.28;5.13;;;14.40;75.80;;;17.40;49.68;97484.41;4980604;28;20057;-37
2023/05/07 04:28:40;;;;;;;9.85;5.85;;;14.50;76.00;;;17.43;49.47;97484.00;4994853;28;20050;-37
2023/05/07 04:31:08;;;;;;;6.13;4.95;;;14.40;75.70;;;17.40;49.80;97483.56;4994731;28;20425;-37
2023/05/07 04:33:37;;;;;;;8.20;5.38;;;14.50;76.00;;;17.43;49.91;97493.94;4994882;28;20050;-37
2023/05/07 04:36:08;;;;;;;5.90;5.30;;;14.60;76.20;;;17.45;49.91;97497.25;4994879;28;20050;-37
2023/05/07 04:38:42;;;;;;;7.30;5.10;;;14.60;75.90;;;17.47;49.64;97495.16;4994660;28;20521;-37
2023/05/07 04:41:12;;;;;;;9.13;5.60;;;14.60;75.80;;;17.48;49.77;97503.00;5012413;28;20053;-37
2023/05/07 04:43:41;;;;;;;6.00;5.20;;;14.70;76.00;;;17.49;49.74;97499.28;5012030;28;20064;-37
2023/05/07 04:46:10;;;;;;;6.28;4.93;;;14.70;75.90;;;17.52;49.88;97501.59;4994567;28;20422;-37
2023/05/07 04:48:38;;;;;;;8.45;5.78;;;14.70;75.60;;;17.54;49.81;97493.28;5012067;28;20513;-37
2023/05/07 04:51:07;;;;;;;7.07;5.15;;;14.80;75.50;;;17.57;49.84;97498.25;4994377;28;20046;-37
2023/05/07 04:53:34;;;;;;;5.80;5.20;;;14.80;75.70;;;17.60;49.90;97499.69;4995603;28;20050;-37
2023/05/07 04:56:02;;;;;;;7.30;5.68;;;14.80;75.70;;;17.63;49.93;97500.09;4994495;28;20046;-37
2023/05/07 04:58:37;;;;;;;6.50;5.13;;;14.80;75.90;;;17.65;49.93;97498.03;4994295;28;20061;-37
2023/05/07 05:01:05;;;;;;;6.10;5.13;;;14.80;76.10;;;17.65;50.05;97499.91;4994333;28;20050;-37
2023/05/07 05:03:32;;;;;;;7.68;5.65;;;14.80;76.20;;;17.68;49.95;97504.84;4995117;28;20081;-37
2023/05/07 05:06:00;;;;;;;9.05;6.15;;;14.90;76.30;;;17.70;50.02;97503.63;4991807;28;20056;-37
2023/05/07 05:08:32;;;;;;;9.05;6.00;;;14.90;76.20;;;17.72;50.16;97506.09;4987393;28;20466;-37
2023/05/07 05:11:02;;;;;;;7.15;5.60;;;14.90;76.50;;;17.74;50.29;97509.41;4994125;28;20046;-37
2023/05/07 05:13:31;;;;;;;7.88;5.50;;;14.90;76.70;;;17.73;50.17;97515.00;4994063;28;20061;-37
2023/05/07 05:16:03;;;;;;;9.77;6.00;;;14.90;77.00;;;17.72;50.31;97519.56;4994152;28;20532;-37
2023/05/07 05:18:33;;;;;;;8.50;5.57;;;14.90;77.20;;;17.69;50.53;97526.19;4994485;28;20046;-37
2023/05/07 05:21:00;;;;;;;8.35;5.53;;;14.80;77.60;;;17.70;50.43;97524.34;4994565;28;20050;-37
2023/05/07 05:23:29;;;;;;;8.30;5.65;;;14.80;77.80;;;17.72;50.48;97527.63;4986550;28;20053;-37
2023/05/07 05:25:57;;;;;;;7.13;5.00;;;14.80;77.90;;;17.75;50.42;97534.47;5011862;28;20042;-37
2023/05/07 05:28:27;;;;;;;6.68;5.20;;;14.90;78.20;;;17.76;50.66;97523.50;4993752;28;20045;-37
2023/05/07 05:30:55;;;;;;;6.68;5.20;;;14.80;78.20;;;17.85;50.73;97529.50;4994308;28;20046;-37
2023/05/07 05:33:25;;;;;;;7.18;5.40;;;15.00;78.50;;;17.88;50.72;97532.59;4993808;28;20053;-37
2023/05/07 05:35:54;;;;;;;6.85;6.15;;;15.00;78.50;;;17.93;50.77;97531.13;4993294;28;20050;-37
2023/05/07 05:38:21;;;;;;;7.57;5.20;;;15.10;78.40;;;17.99;50.71;97543.75;4993737;28;20050;-37
2023/05/07 05:40:50;;;;;;;8.05;6.03;;;15.10;78.00;;;18.05;50.65;97543.75;4994070;28;20049;-37
2023/05/07 05:43:18;;;;;;;7.03;5.25;;;15.30;78.10;;;18.15;50.67;97542.50;4993858;28;20050;-37
2023/05/07 05:45:47;;;;;;;6.15;4.82;;;15.40;78.00;;;18.26;50.82;97536.41;4993416;28;20054;-37
2023/05/07 05:48:14;;;;;;;6.47;5.43;;;15.50;77.90;;;18.35;50.66;97532.44;4985206;28;20053;-37
2023/05/07 05:50:42;;;;;;;6.78;5.07;;;15.60;77.50;;;18.47;50.23;97529.91;5011511;28;20053;-37
2023/05/07 05:53:10;;;;;;;5.63;4.60;;;15.70;76.80;;;18.54;50.05;97533.41;5011495;28;20512;-37
2023/05/07 05:55:39;;;;;;;5.93;4.32;;;15.80;76.10;;;18.59;49.93;97527.38;4993034;28;20041;-37
2023/05/07 05:58:06;;;;;;;5.15;3.72;;;15.80;75.80;;;18.60;49.33;97535.25;4993875;28;20065;-37
2023/05/07 06:00:38;;;;;;;5.70;3.97;;;15.80;74.60;;;18.60;49.02;97548.72;4994107;28;20057;-37
2023/05/07 06:03:07;;;;;;;4.70;4.28;;;15.80;74.00;;;18.59;49.05;97548.94;4993988;28;20045;-37
2023/05/07 06:05:36;;;;;;;6.03;4.10;;;15.80;73.60;;;18.62;49.18;97546.63;4992804;28;20395;-37
2023/05/07 06:08:03;;;;;;;4.85;3.63;;;15.90;73.50;;;18.67;49.16;97540.63;4992794;28;20506;-37
2023/05/07 06:10:33;;;;;;;4.78;4.07;;;16.00;73.40;;;18.75;49.17;97539.53;4986339;28;20046;-37
2023/05/07 06:13:01;;;;;;;5.03;4.45;;;16.00;73.40;;;18.84;49.00;97538.25;4993725;28;20509;-37
2023/05/07 06:15:30;;;;;;;4.22;3.75;;;16.10;73.30;;;18.92;48.73;97540.72;4993503;28;20050;-37
2023/05/07 06:18:03;;;;;;;4.63;3.83;;;16.10;72.80;;;18.98;48.55;97539.00;4993629;28;20433;-37
2023/05/07 06:20:31;;;;;;;6.57;4.00;;;16.20;72.50;;;19.00;48.27;97539.59;4985972;28;20525;-37
2023/05/07 06:23:01;;;;;;;6.68;4.28;;;16.20;71.80;;;19.01;48.31;97552.88;4993689;28;20060;-37
2023/05/07 06:25:32;;;;;;;7.40;3.42;;;16.30;71.70;;;19.11;48.49;97548.88;4993714;28;20046;-37
2023/05/07 06:27:59;;;;;;;3.83;3.28;;;16.40;71.60;;;19.20;48.55;97547.56;4992997;28;20061;-37
2023/05/07 06:30:27;;;;;;;6.18;4.05;;;16.50;71.80;;;19.26;48.21;97552.91;4992970;28;20042;-37
2023/05/07 06:32:55;;;;;;;3.95;3.33;;;16.50;71.10;;;19.25;47.97;97553.97;4993634;28;20072;-37
2023/05/07 06:35:23;;;;;;;6.80;4.50;;;16.60;70.50;;;19.30;47.98;97555.19;4992635;28;20086;-37
2023/05/07 06:37:51;;;;;;;5.60;4.15;;;16.60;70.90;;;19.35;48.06;97547.22;5010310;28;20045;-37
2023/05/07 06:40:23;;;;;;;5.38;4.15;;;16.70;71.70;;;19.40;48.10;97544.72;4993183;28;20061;-37
2023/05/07 06:42:51;;;;;;;5.70;4.10;;;16.70;71.10;;;19.45;47.89;97556.50;4993322;28;20046;-37
2023/05/07 06:45:34;;;;;;;5.78;4.40;;;16.70;70.90;;;19.50;47.97;97552.31;4993775;28;20544;-37
2023/05/07 06:48:03;;;;;;;4.88;3.80;;;16.80;70.70;;;19.49;47.92;97543.41;4990559;28;20525;-37
2023/05/07 06:50:35;;;;;;;4.72;4.00;;;16.80;70.80;;;19.51;48.17;97545.88;4998744;28;20054;-37
2023/05/07 06:53:03;;;;;;;4.57;3.83;;;16.80;71.00;;;19.51;48.38;97544.00;4989470;28;20042;-37
2023/05/07 06:55:31;;;;;;;3.90;3.50;;;16.90;71.10;;;19.55;47.91;97541.69;4985012;28;20057;-37
2023/05/07 06:58:00;;;;;;;6.78;4.45;;;17.00;70.30;;;19.62;48.22;97539.78;4993084;28;20050;-37
2023/05/07 07:00:28;;;;;;;5.43;4.20;;;17.00;70.60;;;19.69;48.12;97543.22;4992783;28;20514;-37
2023/05/07 07:02:57;;;;;;;4.72;3.65;;;17.10;71.00;;;19.76;47.75;97546.72;4993206;28;20049;-37
2023/05/07 07:05:27;;;;;;;4.78;3.80;;;17.20;70.20;;;19.83;48.07;97550.19;4993221;28;20509;-37
2023/05/07 07:07:56;;;;;;;6.13;3.50;;;17.20;70.10;;;19.90;47.69;97550.13;4994566;28;20437;-37
2023/05/07 07:10:23;;;;;;;6.00;3.38;;;17.30;69.90;;;19.99;47.72;97543.38;4996575;28;20050;-37
2023/05/07 07:12:52;;;;;;;4.60;3.70;;;17.40;69.60;;;20.12;47.94;97544.28;5014696;28;20520;-37
2023/05/07 07:15:21;;;;;;;6.38;3.70;;;17.60;69.70;;;20.22;47.40;97544.56;4996201;28;20054;-37
2023/05/07 07:17:50;;;;;;;6.53;3.90;;;17.70;69.10;;;20.32;47.38;97528.66;4996159;28;20057;-37
2023/05/07 07:20:17;;;;;;;5.07;3.17;;;17.90;68.60;;;20.43;46.98;97540.56;5005226;28;20037;-37
2023/05/07 07:22:46;;;;;;;5.57;3.65;;;17.90;67.80;;;20.54;46.83;97536.31;4996822;28;20045;-37
2023/05/07 07:25:15;;;;;;;5.28;3.70;;;18.00;67.70;;;20.65;46.31;97539.09;4996361;28;20041;-37
2023/05/07 07:27:43;;;;;;;5.80;3.53;;;18.20;67.40;;;20.75;46.40;97537.72;4996511;28;20425;-38
2023/05/07 07:30:11;;;;;;;5.57;3.47;;;18.30;66.80;;;20.84;46.50;97548.00;4996259;28;20096;-37
2023/05/07 07:32:41;;;;;;;5.15;3.67;;;18.40;66.60;;;20.93;46.41;97550.38;4978134;28;20053;-37
2023/05/07 07:35:09;;;;;;;4.55;3.60;;;18.50;66.40;;;20.97;46.16;97555.09;4996247;28;20077;-37
2023/05/07 07:37:38;;;;;;;4.88;3.60;;;18.50;66.20;;;21.03;46.48;97553.34;4995628;28;20049;-37
2023/05/07 07:40:07;;;;;;;3.97;3.50;;;18.60;67.00;;;21.04;45.94;97555.00;4987904;28;20414;-37
2023/05/07 07:42:35;;;;;;;4.80;4.18;;;18.70;65.50;;;21.06;45.44;97549.38;4996269;28;20445;-37
2023/05/07 07:45:04;;;;;;;8.20;5.20;;;18.70;64.70;;;21.04;45.36;97555.00;5013740;28;20405;-37
2023/05/07 07:47:34;;;;;;;7.53;4.80;;;18.70;64.30;;;21.06;45.49;97552.88;4995819;28;20065;-37
2023/05/07 07:50:02;;;;;;;6.72;4.22;;;18.70;64.50;;;21.08;45.23;97556.19;4995897;28;20046;-37
2023/05/07 07:52:30;;;;;;;4.05;3.60;;;18.70;64.50;;;21.11;45.65;97555.75;4996336;28;20046;-37
2023/05/07 07:54:58;;;;;;;6.72;4.20;;;18.70;64.60;;;21.15;45.67;97553.38;4995483;28;20421;-37
2023/05/07 07:57:25;;;;;;;7.30;3.88;;;18.70;64.70;;;21.18;45.35;97558.34;4987377;28;20065;-37
2023/05/07 07:59:53;;;;;;;4.70;3.85;;;18.80;64.50;;;21.21;45.58;97553.28;5013868;28;20045;-37
2023/05/07 08:02:21;;;;;;;6.28;3.92;;;18.80;64.50;;;21.23;45.42;97553.88;5013665;28;20042;-37
2023/05/07 08:04:50;;;;;;;4.70;3.90;;;18.80;64.20;;;21.30;45.47;97559.19;4994026;28;20058;-37
2023/05/07 08:07:20;;;;;;;5.28;4.05;;;18.90;64.20;;;21.32;44.89;97564.38;4986155;28;20045;-37
2023/05/07 08:09:48;;;;;;;5.45;4.50;;;18.90;64.10;;;21.37;45.44;97559.09;4978436;28;20524;-37
2023/05/07 08:12:20;;;;;;;5.72;4.28;;;19.00;64.30;;;21.40;45.49;97562.16;4995543;28;20065;-37
2023/05/07 08:14:48;;;;;;;4.90;3.80;;;19.00;64.30;;;21.42;45.29;97560.03;4995617;28;20050;-37
2023/05/07 08:17:16;;;;;;;6.03;4.18;;;19.10;64.20;;;21.46;45.61;97562.31;4986815;28;20417;-37
2023/05/07 08:19:45;;;;;;;6.05;4.30;;;19.10;64.40;;;21.54;45.22;97553.81;4994716;28;20046;-37
2023/05/07 08:22:14;;;;;;;8.70;4.18;;;19.10;64.50;;;21.62;45.38;97558.91;4976295;28;20490;-37
2023/05/07 08:24:42;;;;;;;5.32;4.22;;;19.20;64.30;;;21.70;45.33;97552.34;4995427;28;20049;-37
2023/05/07 08:27:11;;;;;;;5.57;4.05;;;19.20;64.20;;;21.75;45.14;97563.28;4987431;28;20046;-37
2023/05/07 08:29:41;;;;;;;6.40;4.05;;;19.30;64.40;;;21.80;44.53;97561.50;4988092;28;20057;-37
2023/05/07 08:32:08;;;;;;;5.07;4.15;;;19.30;63.70;;;21.85;44.80;97558.13;4995418;28;20046;-37
2023/05/07 08:34:36;;;;;;;3.85;3.38;;;19.30;63.60;;;21.91;44.91;97554.44;4995247;28;20524;-37
2023/05/07 08:37:05;;;;;;;5.03;4.43;;;19.40;63.70;;;21.97;44.79;97558.91;4994954;28;20046;-37
2023/05/07 08:39:34;;;;;;;4.07;3.65;;;19.50;63.60;;;21.99;44.47;97567.63;4994914;28;20064;-37
2023/05/07 08:42:07;;;;;;;4.38;3.63;;;19.50;63.60;;;22.06;44.75;97559.38;4995506;28;20140;-37
2023/05/07 08:44:35;;;;;;;6.20;3.58;;;19.60;63.60;;;22.16;44.82;97565.03;5001673;28;20066;-37
2023/05/07 08:47:05;;;;;;;4.28;3.78;;;19.70;63.70;;;22.26;44.46;97567.19;5012319;28;20057;-37
2023/05/07 08:49:34;;;;;;;4.63;3.92;;;19.80;62.90;;;22.29;44.18;97569.41;4986387;28;20054;-37
2023/05/07 08:52:02;;;;;;;4.53;4.03;;;19.80;62.50;;;22.33;43.89;97572.47;5012889;28;20413;-37
2023/05/07 08:54:31;;;;;;;5.00;4.05;;;19.90;62.70;;;22.36;44.52;97566.56;4984293;28;20049;-37
2023/05/07 08:56:59;;;;;;;7.53;4.57;;;19.90;63.10;;;22.41;44.16;97564.78;4987336;28;20042;-37
2023/05/07 08:59:27;;;;;;;4.20;3.65;;;19.90;62.70;;;22.47;44.44;97562.16;4994458;28;20037;-38
2023/05/07 09:01:55;;;;;;;5.50;4.18;;;20.00;62.60;;;22.49;44.38;97566.31;5012566;28;20040;-38
2023/05/07 09:04:23;;;;;;;4.45;4.05;;;20.10;62.80;;;22.56;44.25;97563.44;4994591;28;20501;-38
2023/05/07 09:06:51;;;;;;;5.43;3.78;;;20.10;62.70;;;22.61;44.24;97567.09;4986422;28;20544;-38
2023/05/07 09:09:22;;;;;;;6.20;4.07;;;20.20;62.50;;;22.66;44.30;97560.13;4994215;28;20506;-38
2023/05/07 09:11:59;;;;;;;6.32;4.88;;;20.20;62.40;;;22.64;44.10;97557.63;4994763;28;20042;-38
2023/05/07 09:14:30;;;;;;;5.40;4.10;;;20.20;61.70;;;22.60;44.16;97551.06;4994584;28;20048;-38
2023/05/07 09:16:57;;;;;;;5.18;4.03;;;20.20;62.50;;;22.64;44.50;97551.41;5012260;28;20030;-38
2023/05/07 09:19:26;;;;;;;6.88;4.10;;;20.20;63.00;;;22.65;44.29;97548.44;4985748;28;20042;-38
2023/05/07 09:22:03;;;;;;;5.15;3.88;;;20.30;62.50;;;22.63;44.12;97541.63;4994901;28;20046;-38
2023/05/07 09:24:40;;;;;;;4.97;3.58;;;20.30;62.00;;;22.66;44.17;97543.84;4986324;28;20052;-38
2023/05/07 09:27:13;;;;;;;4.03;3.67;;;20.30;62.20;;;22.71;44.25;97538.53;4994471;28;20042;-38
2023/05/07 09:29:44;;;;;;;4.82;4.30;;;20.30;62.40;;;22.76;44.02;97534.03;4994109;28;20041;-38
2023/05/07 09:32:15;;;;;;;4.90;4.40;;;20.40;62.00;;;22.75;44.05;97532.34;4994299;28;20046;-38
2023/05/07 09:34:43;;;;;;;7.95;4.43;;;20.40;62.00;;;22.79;44.42;97541.66;4986841;28;20044;-38
2023/05/07 09:37:13;;;;;;;4.78;3.33;;;20.40;62.40;;;22.84;44.63;97537.38;4994443;28;20049;-38
2023/05/07 09:39:46;;;;;;;4.80;3.80;;;20.50;62.50;;;22.91;44.08;97541.59;4994279;28;20046;-38
2023/05/07 09:42:24;;;;;;;4.72;4.18;;;20.50;62.10;;;22.98;44.25;97538.75;4993742;28;20501;-38
2023/05/07 09:44:53;;;;;;;4.45;4.05;;;20.60;61.70;;;23.02;43.92;97539.91;4991315;28;20053;-38
2023/05/07 09:47:27;;;;;;;5.60;4.20;;;20.60;61.70;;;23.06;44.07;97546.53;4992321;28;20493;-38
2023/05/07 09:49:59;;;;;;;4.88;3.70;;;20.60;61.50;;;23.10;43.89;97536.81;5010691;28;20441;-38
2023/05/07 09:52:33;;;;;;;4.50;3.40;;;20.70;61.50;;;23.20;43.84;97538.91;5002489;28;20045;-38
2023/05/07 09:55:03;;;;;;;7.18;4.00;;;20.80;61.60;;;23.25;44.11;97536.28;4977294;28;20050;-38
2023/05/07 09:57:33;;;;;;;5.28;4.20;;;20.80;61.70;;;23.30;43.80;97536.38;5009433;28;20045;-38
2023/05/07 10:00:08;;;;;;;5.85;4.30;;;20.90;61.50;;;23.37;43.86;97534.31;4986686;28;20423;-38
2023/05/07 10:02:52;;;;;;;5.30;4.35;;;21.00;61.20;;;23.46;43.39;97531.16;5006460;28;20052;-38
2023/05/07 10:05:32;;;;;;;4.43;3.55;;;21.10;60.80;;;23.49;43.71;97528.78;4993368;28;20054;-38
2023/05/07 10:08:01;;;;;;;5.82;4.05;;;21.10;61.30;;;23.52;43.40;97522.88;4993871;28;20049;-38
2023/05/07 10:10:34;;;;;;;5.53;4.43;;;21.10;60.90;;;23.55;43.45;97518.81;4985755;28;20056;-38
2023/05/07 10:13:05;;;;;;;5.15;4.05;;;21.20;60.80;;;23.63;43.29;97523.84;4993955;28;20068;-38
2023/05/07 10:15:35;;;;;;;7.60;4.53;;;21.30;60.60;;;23.67;42.87;97511.44;4992484;28;20050;-38
2023/05/07 10:18:07;;;;;;;4.50;3.78;;;21.30;59.90;;;23.68;42.80;97518.50;4990093;28;20038;-38
2023/05/07 10:20:37;;;;;;;;;;;21.30;59.20;;;23.84;42.71;97514.13;4992414;28;20050;-38
2023/05/07 10:23:09;;;;;;;4.72;3.83;;;21.40;58.80;;;23.88;42.53;97517.19;4993529;28;19921;-38
2023/05/07 10:25:42;;;;;;;3.80;3.40;;;21.40;59.40;;;23.88;42.83;97517.19;4993336;28;20049;-38
2023/05/07 10:28:23;;;;;;;4.05;3.60;;;21.50;59.60;;;23.94;42.31;97518.88;4993221;28;20054;-38
2023/05/07 10:31:50;;;;;;;4.35;3.95;;;21.60;58.60;;;23.98;42.15;97514.59;4986104;28;20054;-38